Time;durP1;ratioP1;P1;durP2;ratioP2;P2;SDS_P1;SDS_P2;PMS_P1;PMS_P2;Temp;Humidity;BMP_temperature;BMP_pressure;BME280_temperature;BME280_humidity;BME280_pressure;Samples;Min_cycle;Max_cycle;Signal;HPM_P1;HPM_P2
2021/11/01 00:01:48;;;;;;;29.43;19.67;;;;;;;8.02;77.33;101322.69;5017574;28;20048;-57
2021/11/01 00:04:14;;;;;;;24.90;17.53;;;;;;;7.89;76.75;101306.16;5035940;28;20041;-58
2021/11/01 00:06:39;;;;;;;27.37;20.83;;;;;;;8.10;77.28;101338.81;5033500;28;20092;-56
2021/11/01 00:09:05;;;;;;;27.93;19.60;;;;;;;8.01;77.15;101324.50;5031798;28;20256;-56
2021/11/01 00:11:31;;;;;;;27.53;20.47;;;;;;;8.04;77.04;101337.50;5014044;28;20575;-58
2021/11/01 00:13:57;;;;;;;29.50;20.40;;;;;;;8.00;77.59;101335.25;5031645;28;20501;-59
2021/11/01 00:16:22;;;;;;;26.13;20.77;;;;;;;7.92;77.71;101333.25;5031310;28;20033;-58
2021/11/01 00:18:48;;;;;;;30.63;19.83;;;;;;;7.93;77.44;101329.63;5031629;28;20547;-60
2021/11/01 00:21:14;;;;;;;28.13;20.67;;;;;;;7.85;77.65;101318.03;5032452;28;20029;-61
2021/11/01 00:23:40;;;;;;;30.63;20.00;;;;;;;7.91;77.63;101326.28;5013901;28;20029;-58
2021/11/01 00:26:06;;;;;;;23.57;18.87;;;;;;;7.92;77.79;101327.13;5031465;28;20052;-59
2021/11/01 00:28:32;;;;;;;28.83;19.87;;;;;;;7.96;77.46;101339.16;5031382;28;20492;-62
2021/11/01 00:30:58;;;;;;;33.77;21.27;;;;;;;7.84;77.65;101322.47;5031500;28;20395;-58
2021/11/01 00:33:25;;;;;;;27.77;19.47;;;;;;;7.95;77.43;101345.41;5031389;28;20037;-57
2021/11/01 00:35:51;;;;;;;24.67;19.07;;;;;;;7.87;77.77;101324.88;5034087;28;20044;-59
2021/11/01 00:38:21;;;;;;;26.50;19.80;;;;;;;7.90;76.83;101329.06;5035353;28;20033;-57
2021/11/01 00:40:48;;;;;;;26.90;21.67;;;;;;;7.92;77.46;101332.44;5035004;28;20046;-59
2021/11/01 00:43:14;;;;;;;24.90;18.50;;;;;;;8.03;77.06;101345.59;5035145;28;20042;-60
2021/11/01 00:45:39;;;;;;;27.67;20.97;;;;;;;8.06;77.34;101356.78;5035338;28;20026;-61
2021/11/01 00:48:05;;;;;;;26.03;20.37;;;;;;;8.02;76.98;101344.75;5035814;28;20220;-58
2021/11/01 00:50:32;;;;;;;26.10;20.53;;;;;;;8.01;76.45;101348.38;5035406;28;20033;-58
2021/11/01 00:52:59;;;;;;;24.77;18.83;;;;;;;8.08;76.41;101346.03;5035409;28;20041;-58
2021/11/01 00:55:37;;;;;;;23.10;18.63;;;;;;;8.11;76.89;101351.09;5017101;28;20063;-60
2021/11/01 00:58:04;;;;;;;25.50;19.30;;;;;;;8.10;76.73;101346.78;5035013;28;20538;-57
2021/11/01 01:00:30;;;;;;;24.17;18.73;;;;;;;8.05;76.70;101343.66;5034789;28;20033;-59
2021/11/01 01:02:59;;;;;;;25.93;20.33;;;;;;;8.04;76.84;101341.97;5034815;28;20033;-58
2021/11/01 01:05:25;;;;;;;26.73;20.97;;;;;;;8.03;76.65;101341.13;5035111;28;20029;-59
2021/11/01 01:07:51;;;;;;;26.63;19.53;;;;;;;7.96;76.47;101326.72;5035458;28;20514;-58
2021/11/01 01:10:16;;;;;;;27.27;20.27;;;;;;;8.12;76.62;101355.44;5034490;28;20080;-59
2021/11/01 01:12:43;;;;;;;27.37;20.73;;;;;;;8.10;77.07;101333.50;5034745;28;20116;-60
2021/11/01 01:15:18;;;;;;;29.37;20.13;;;;;;;7.98;76.48;101315.97;5034630;28;20119;-59
2021/11/01 01:17:45;;;;;;;27.70;20.63;;;;;;;8.12;76.57;101334.22;5016906;28;20037;-60
2021/11/01 01:20:13;;;;;;;26.70;21.07;;;;;;;8.15;76.83;101349.88;5016731;28;20504;-57
2021/11/01 01:22:41;;;;;;;28.20;19.95;;;;;;;8.16;76.53;101351.53;5017043;28;20029;-58
2021/11/01 01:25:25;;;;;;;27.08;20.70;;;;;;;8.03;76.76;101321.72;5033396;28;20124;-58
2021/11/01 01:27:52;;;;;;;23.43;18.43;;;;;;;8.12;76.39;101349.28;5034405;28;20128;-57
2021/11/01 01:30:19;;;;;;;27.50;19.80;;;;;;;8.13;77.05;101362.41;5034225;28;20132;-57
2021/11/01 01:32:45;;;;;;;26.33;19.13;;;;;;;8.14;76.59;101348.19;5034263;28;20065;-59
2021/11/01 01:35:13;;;;;;;32.00;21.33;;;;;;;8.19;76.48;101361.88;5034039;28;20041;-58
2021/11/01 01:37:39;;;;;;;28.87;20.43;;;;;;;8.24;76.38;101358.84;5034726;28;20033;-59
2021/11/01 01:40:07;;;;;;;30.47;20.93;;;;;;;8.24;76.24;101364.97;5033879;28;20150;-58
2021/11/01 01:42:34;;;;;;;26.13;19.47;;;;;;;8.22;76.88;101351.00;5033102;28;20049;-59
2021/11/01 01:45:00;;;;;;;26.63;19.83;;;;;;;8.29;76.58;101357.44;5034105;28;20099;-58
2021/11/01 01:47:25;;;;;;;26.73;20.13;;;;;;;8.24;76.08;101348.22;5032730;28;20041;-58
2021/11/01 01:49:52;;;;;;;26.80;20.30;;;;;;;8.24;76.95;101349.06;5034000;28;20045;-59
2021/11/01 01:52:21;;;;;;;24.43;19.50;;;;;;;8.22;77.25;101358.13;5017122;28;20040;-57
2021/11/01 01:54:47;;;;;;;25.52;18.92;;;;;;;8.22;76.76;101361.63;5034040;28;20067;-58
2021/11/01 01:57:12;;;;;;;29.00;20.93;;;;;;;8.24;76.78;101362.31;5033874;28;20496;-60
2021/11/01 01:59:38;;;;;;;26.23;19.73;;;;;;;8.23;76.90;101368.59;5015938;28;20037;-57
2021/11/01 02:02:04;;;;;;;25.77;19.37;;;;;;;8.22;76.73;101366.94;5033766;28;20041;-54
2021/11/01 02:04:32;;;;;;;25.43;19.73;;;;;;;8.22;77.55;101369.56;5033528;28;20030;-60
2021/11/01 02:07:44;;;;;;;32.90;23.27;;;;;;;8.24;76.72;101370.28;5034270;28;20501;-62
2021/11/01 02:10:18;;;;;;;28.77;21.70;;;;;;;8.21;76.70;101359.94;4997694;28;20049;-60
2021/11/01 02:12:50;;;;;;;28.63;19.87;;;;;;;8.24;77.38;101372.94;5032302;28;20496;-57
2021/11/01 02:15:31;;;;;;;27.17;20.33;;;;;;;8.28;77.30;101374.34;5033627;28;20087;-59
2021/11/01 02:17:57;;;;;;;26.13;20.27;;;;;;;8.28;76.77;101379.66;5033528;28;20584;-56
2021/11/01 02:20:35;;;;;;;26.23;20.27;;;;;;;8.35;77.22;101380.84;5033592;28;20033;-63
2021/11/01 02:23:18;;;;;;;26.20;19.17;;;;;;;8.32;76.66;101378.41;5033396;28;20067;-58
2021/11/01 02:25:47;;;;;;;27.13;21.50;;;;;;;8.31;77.18;101375.88;5033727;28;20045;-56
2021/11/01 02:28:33;;;;;;;;;;;;;;;8.34;77.51;101380.97;5033701;28;20026;-56
2021/11/01 02:30:59;;;;;;;29.97;21.17;;;;;;;8.30;77.36;101380.38;5032614;28;19921;-57
2021/11/01 02:33:26;;;;;;;24.70;19.23;;;;;;;8.31;77.80;101387.34;5032885;28;20615;-60
2021/11/01 02:35:53;;;;;;;28.13;20.83;;;;;;;8.32;77.75;101383.72;5033472;28;20048;-57
2021/11/01 02:38:24;;;;;;;28.90;21.10;;;;;;;8.37;77.45;101389.50;5015314;28;20045;-58
2021/11/01 02:40:51;;;;;;;31.03;21.57;;;;;;;8.38;77.52;101388.56;5015509;28;20041;-54
2021/11/01 02:43:18;;;;;;;32.00;22.43;;;;;;;8.38;77.20;101398.31;5033299;28;20523;-57
2021/11/01 02:45:45;;;;;;;28.77;21.87;;;;;;;8.37;77.59;101392.16;5015983;28;20045;-61
2021/11/01 02:48:11;;;;;;;28.57;20.27;;;;;;;8.42;77.55;101394.44;5033116;28;20125;-58
2021/11/01 02:50:38;;;;;;;33.13;21.10;;;;;;;8.45;77.44;101395.97;5033571;28;20077;-57
2021/11/01 02:53:04;;;;;;;26.87;19.60;;;;;;;8.41;77.32;101390.09;5032899;28;20049;-58
2021/11/01 02:55:30;;;;;;;29.87;21.07;;;;;;;8.45;76.98;101394.16;5014941;28;20041;-59
2021/11/01 02:57:55;;;;;;;29.90;22.00;;;;;;;8.23;77.97;101363.28;5032532;28;20059;-60
2021/11/01 03:00:25;;;;;;;34.67;23.47;;;;;;;8.44;77.27;101396.94;5032379;28;20471;-58
2021/11/01 03:02:51;;;;;;;31.17;22.70;;;;;;;8.50;77.27;101407.03;5031370;28;20037;-55
2021/11/01 03:05:22;;;;;;;34.57;21.90;;;;;;;8.49;77.32;101394.72;5032953;28;20034;-58
2021/11/01 03:07:49;;;;;;;31.57;21.77;;;;;;;8.53;78.00;101406.75;5033025;28;20033;-57
2021/11/01 03:10:16;;;;;;;29.57;22.53;;;;;;;8.47;77.60;101391.38;5032610;28;20478;-59
2021/11/01 03:12:44;;;;;;;26.97;20.53;;;;;;;8.42;77.73;101377.66;5032724;28;20489;-58
2021/11/01 03:15:16;;;;;;;33.55;22.83;;;;;;;8.58;77.92;101404.53;5032812;28;20037;-61
2021/11/01 03:17:46;;;;;;;35.07;24.33;;;;;;;8.53;77.53;101396.16;5033269;28;20037;-58
2021/11/01 03:20:15;;;;;;;32.30;20.50;;;;;;;8.59;77.48;101411.53;5032607;28;20084;-55
2021/11/01 03:22:45;;;;;;;29.00;21.17;;;;;;;8.60;78.03;101413.22;5032557;28;20079;-56
2021/11/01 03:25:22;;;;;;;36.00;23.20;;;;;;;8.55;77.72;101405.66;5031267;28;20064;-57
2021/11/01 03:27:53;;;;;;;31.77;23.40;;;;;;;8.56;78.26;101403.84;5032338;28;20080;-55
2021/11/01 03:30:20;;;;;;;33.07;22.87;;;;;;;8.61;78.28;101409.56;5031245;28;20048;-54
2021/11/01 03:32:48;;;;;;;34.00;22.33;;;;;;;8.52;78.56;101389.16;5016023;28;20484;-59
2021/11/01 03:35:16;;;;;;;33.30;23.17;;;;;;;8.64;78.24;101414.63;5033563;28;20037;-58
2021/11/01 03:37:43;;;;;;;29.77;22.50;;;;;;;8.43;78.50;101374.03;5034207;28;20045;-58
2021/11/01 03:40:15;;;;;;;33.90;23.08;;;;;;;8.63;77.95;101399.66;5033343;28;20057;-58
2021/11/01 03:42:42;;;;;;;34.73;23.97;;;;;;;8.69;78.24;101415.09;5033809;28;20072;-58
2021/11/01 03:45:09;;;;;;;34.27;24.10;;;;;;;8.62;78.34;101406.78;5033526;28;20492;-62
2021/11/01 03:47:40;;;;;;;36.67;22.67;;;;;;;8.69;78.27;101407.13;5032850;28;20037;-58
2021/11/01 03:50:16;;;;;;;29.97;22.20;;;;;;;8.73;78.56;101421.81;5032351;28;20094;-59
2021/11/01 03:52:45;;;;;;;33.23;22.87;;;;;;;8.70;78.00;101414.09;5033218;28;20045;-58
2021/11/01 03:55:12;;;;;;;33.10;23.27;;;;;;;8.73;78.30;101419.16;5033081;28;20044;-56
2021/11/01 03:57:37;;;;;;;30.37;22.17;;;;;;;8.67;78.04;101403.72;5032997;28;20041;-60
2021/11/01 04:00:06;;;;;;;33.97;23.27;;;;;;;8.68;77.88;101418.72;5033284;28;20048;-62
2021/11/01 04:02:32;;;;;;;29.20;22.25;;;;;;;8.66;77.91;101410.00;5015229;28;20033;-61
2021/11/01 04:05:00;;;;;;;32.97;23.07;;;;;;;8.64;78.17;101409.31;5014262;28;20099;-59
2021/11/01 04:07:26;;;;;;;37.03;24.17;;;;;;;8.66;78.14;101407.34;5031799;28;20087;-59
2021/11/01 04:09:52;;;;;;;33.63;23.90;;;;;;;8.61;78.38;101407.75;5032387;28;20045;-59
2021/11/01 04:12:18;;;;;;;31.10;23.30;;;;;;;8.67;78.60;101417.00;5035813;28;20119;-61
2021/11/01 04:14:57;;;;;;;33.00;22.93;;;;;;;8.61;78.28;101422.84;5035845;28;20493;-60
2021/11/01 04:17:37;;;;;;;31.70;23.07;;;;;;;8.67;78.35;101425.84;5035808;28;20056;-58
2021/11/01 04:22:36;;;;;;;31.80;22.87;;;;;;;8.74;78.42;101427.94;5036083;28;20099;-60
2021/11/01 04:25:02;;;;;;;32.33;24.10;;;;;;;8.62;77.95;101411.25;5017942;28;20200;-59
2021/11/01 04:27:29;;;;;;;32.33;22.03;;;;;;;8.70;78.41;101424.72;5035425;28;20044;-59
2021/11/01 04:29:54;;;;;;;31.30;23.00;;;;;;;8.64;78.25;101427.91;5035152;28;20030;-58
2021/11/01 04:32:29;;;;;;;36.97;23.10;;;;;;;8.63;78.37;101412.94;5035217;28;20045;-58
2021/11/01 04:35:08;;;;;;;31.53;21.97;;;;;;;8.67;78.38;101414.34;5035575;28;20447;-60
2021/11/01 04:37:34;;;;;;;30.10;22.23;;;;;;;8.72;78.30;101417.47;5017716;28;20083;-56
2021/11/01 04:53:07;;;;;;;41.43;24.47;;;;;;;8.65;79.13;101426.91;5035047;28;20051;-62
2021/11/01 04:55:34;;;;;;;40.80;23.83;;;;;;;8.67;79.09;101431.16;5035160;28;20559;-55
2021/11/01 04:58:01;;;;;;;34.60;22.97;;;;;;;8.66;79.28;101433.91;5035056;28;20091;-58
2021/11/01 05:00:27;;;;;;;34.00;23.17;;;;;;;8.69;79.11;101433.66;5034919;28;20029;-57
2021/11/01 05:05:45;;;;;;;37.90;26.27;;;;;;;8.65;79.71;101448.16;5033685;28;20492;-57
2021/11/01 05:08:11;;;;;;;39.30;25.00;;;;;;;8.61;80.17;101441.44;5056479;28;20058;-60
2021/11/01 05:10:39;;;;;;;38.37;25.53;;;;;;;8.65;80.08;101448.16;5056956;28;20399;-59
2021/11/01 05:13:30;;;;;;;43.50;25.65;;;;;;;8.68;79.63;101447.91;5056927;28;20089;-59
2021/11/01 05:18:31;;;;;;;42.37;27.17;;;;;;;8.66;80.18;101439.22;5056948;28;20348;-58
2021/11/01 05:23:48;;;;;;;40.30;26.80;;;;;;;8.72;80.59;101448.50;5055631;28;20509;-59
2021/11/01 05:29:01;;;;;;;47.43;26.33;;;;;;;8.71;80.75;101447.66;5059100;28;20072;-53
2021/11/01 05:31:28;;;;;;;42.55;27.15;;;;;;;8.71;80.60;101452.97;5039858;28;20408;-56
2021/11/01 05:36:25;;;;;;;37.17;24.63;;;;;;;8.78;80.57;101459.41;5055982;28;20048;-55
2021/11/01 05:38:52;;;;;;;46.00;26.73;;;;;;;8.82;80.51;101471.44;5054990;28;20049;-61
2021/11/01 05:41:18;;;;;;;37.80;27.17;;;;;;;8.79;80.51;101462.91;5054338;28;20132;-57
2021/11/01 05:43:45;;;;;;;37.30;24.43;;;;;;;8.80;80.55;101461.94;5054181;28;20033;-58
2021/11/01 05:46:12;;;;;;;40.77;26.47;;;;;;;8.70;80.83;101448.63;5054219;28;20039;-57
2021/11/01 05:48:38;;;;;;;44.40;26.17;;;;;;;8.83;80.26;101457.19;5036156;28;20037;-60
2021/11/01 05:51:06;;;;;;;39.60;25.70;;;;;;;8.83;80.44;101457.19;5054288;28;20433;-57
2021/11/01 05:53:37;;;;;;;39.03;26.50;;;;;;;8.89;79.90;101467.28;5054693;28;20052;-60
2021/11/01 06:01:44;;;;;;;33.90;24.23;;;;;;;8.97;79.93;101482.56;5037014;28;20518;-57
2021/11/01 06:04:30;;;;;;;39.03;25.03;;;;;;;8.90;79.14;101463.63;5055527;28;20064;-59
2021/11/01 06:07:16;;;;;;;39.83;25.80;;;;;;;9.03;79.08;101474.03;5056053;28;20043;-56
2021/11/01 06:15:07;;;;;;;36.20;25.63;;;;;;;9.10;79.60;101485.81;5054559;28;20045;-59
2021/11/01 06:17:33;;;;;;;44.07;28.40;;;;;;;9.18;79.42;101498.41;5036508;28;20439;-61
2021/11/01 06:19:59;;;;;;;41.13;28.40;;;;;;;9.17;79.32;101502.03;5045591;28;20472;-59
2021/11/01 06:22:25;;;;;;;40.93;28.40;;;;;;;9.15;78.72;101502.19;5048029;28;20055;-59
2021/11/01 06:24:53;;;;;;;40.73;28.03;;;;;;;9.19;79.35;101500.09;5051887;28;20029;-58
2021/11/01 06:27:21;;;;;;;37.70;27.97;;;;;;;9.13;79.10;101501.47;5053076;28;20148;-54
2021/11/01 06:40:26;;;;;;;37.07;27.33;;;;;;;9.36;78.31;101517.22;5040885;28;20060;-57
2021/11/01 06:50:55;;;;;;;38.00;26.33;;;;;;;9.43;77.92;101513.03;5052658;28;20033;-62
2021/11/01 07:17:44;;;;;;;36.53;25.37;;;;;;;9.50;77.02;101530.09;5052360;28;20037;-59
2021/11/01 08:52:08;;;;;;;39.87;26.80;;;;;;;9.63;76.08;101576.75;5034131;28;20087;-59
2021/11/01 09:03:04;;;;;;;33.40;25.00;;;;;;;9.53;76.79;101573.22;5055078;28;20029;-60
2021/11/01 09:05:43;;;;;;;38.90;26.00;;;;;;;9.67;76.67;101584.47;5055793;28;20128;-59
2021/11/01 09:21:31;;;;;;;42.63;27.13;;;;;;;9.69;77.59;101598.47;5055091;28;20082;-59
2021/11/01 09:24:32;;;;;;;46.20;27.53;;;;;;;9.55;77.05;101563.31;5054652;28;20037;-59
2021/11/01 09:26:48;;;;;;;41.20;26.67;;;;;;;9.79;76.59;101589.53;5054232;28;20051;-60
2021/11/01 09:43:06;;;;;;;40.77;26.77;;;;;;;9.66;76.67;101585.44;5054476;28;20040;-57
2021/11/01 09:45:36;;;;;;;39.53;25.80;;;;;;;9.79;76.73;101594.00;5054472;28;20133;-58
2021/11/01 09:48:03;;;;;;;41.50;26.20;;;;;;;9.80;76.84;101595.69;5054163;28;20203;-61
2021/11/01 09:50:29;;;;;;;44.47;28.77;;;;;;;9.61;76.85;101557.44;5054606;28;20095;-58
2021/11/01 09:52:58;;;;;;;51.70;28.63;;;;;;;9.78;76.80;101581.69;5036738;28;20041;-58
2021/11/01 10:00:38;;;;;;;53.77;32.70;;;;;;;9.86;77.15;101584.50;5053565;28;20098;-59
2021/11/01 10:03:04;;;;;;;41.23;28.57;;;;;;;9.86;76.78;101574.72;5053640;28;20081;-58
2021/11/01 10:05:34;;;;;;;42.20;25.70;;;;;;;9.98;76.45;101588.72;5053630;28;20435;-59
2021/11/01 10:08:01;;;;;;;;;;;;;;;10.05;76.10;101587.16;5052521;28;20036;-58
2021/11/01 10:10:30;;;;;;;42.83;27.50;;;;;;;9.43;76.33;101500.56;5035697;28;19924;-56
2021/11/01 10:12:56;;;;;;;38.77;24.60;;;;;;;9.85;76.41;101570.38;5053501;28;20033;-59
2021/11/01 10:18:12;;;;;;;37.15;24.20;;;;;;;9.88;76.65;101569.25;5053115;28;20036;-60
2021/11/01 10:20:47;;;;;;;38.53;24.05;;;;;;;9.41;76.54;101499.88;5053802;28;20068;-61
2021/11/01 10:23:23;;;;;;;36.63;24.83;;;;;;;9.98;76.24;101580.72;5053109;28;20093;-58
2021/11/01 10:25:50;;;;;;;42.07;25.87;;;;;;;9.91;76.43;101576.94;5053054;28;20037;-59
2021/11/01 10:28:28;;;;;;;42.57;28.93;;;;;;;9.90;76.41;101580.59;5052676;28;20029;-59
2021/11/01 10:31:20;;;;;;;40.40;25.65;;;;;;;9.92;76.86;101583.94;5035242;28;20048;-61
2021/11/01 10:33:49;;;;;;;38.70;26.33;;;;;;;9.89;76.70;101563.78;5044806;28;20060;-61
2021/11/01 10:36:26;;;;;;;35.23;24.07;;;;;;;9.90;76.13;101575.28;5053058;28;20078;-60
2021/11/01 10:39:22;;;;;;;35.03;24.10;;;;;;;9.93;76.51;101572.31;5052692;28;20106;-60
2021/11/01 10:56:17;;;;;;;37.37;24.13;;;;;;;9.79;76.96;101567.41;5052798;28;20040;-58
2021/11/01 11:12:32;;;;;;;51.67;29.30;;;;;;;9.70;77.26;101561.09;5052614;28;20519;-57
2021/11/01 11:15:14;;;;;;;45.60;29.90;;;;;;;9.83;76.44;101567.00;5052420;28;20040;-62
2021/11/01 11:25:44;;;;;;;45.77;28.50;;;;;;;9.96;75.10;101563.22;5055076;28;20519;-61
2021/11/01 11:39:27;;;;;;;44.80;29.73;;;;;;;9.93;75.06;101564.34;5051615;28;20413;-63
2021/11/01 11:42:51;;;;;;;44.80;30.98;;;;;;;9.89;75.20;101547.81;5052212;28;20037;-54
2021/11/01 11:50:32;;;;;;;49.80;33.80;;;;;;;9.92;75.55;101557.34;5052228;28;20097;-58
2021/11/01 11:53:10;;;;;;;51.70;30.90;;;;;;;9.89;76.13;101562.94;5034085;28;20120;-61
2021/11/01 11:55:35;;;;;;;54.33;32.05;;;;;;;9.84;76.88;101568.69;5051766;28;20037;-56
2021/11/01 11:58:05;;;;;;;56.67;34.80;;;;;;;9.77;77.43;101553.38;5051915;28;20131;-61
2021/11/01 12:00:34;;;;;;;60.20;35.17;;;;;;;9.67;77.35;101547.22;5051729;28;20032;-58
2021/11/01 12:03:11;;;;;;;55.37;31.17;;;;;;;9.78;77.01;101560.41;5051877;28;20044;-59
2021/11/01 12:05:45;;;;;;;50.47;33.07;;;;;;;9.76;77.23;101546.41;5052206;28;20029;-63
2021/11/01 12:19:10;;;;;;;51.10;33.67;;;;;;;9.63;78.04;101549.31;5052012;28;20032;-56
2021/11/01 12:21:43;;;;;;;50.60;31.27;;;;;;;9.67;77.89;101547.22;5051767;28;20075;-57
2021/11/01 12:24:13;;;;;;;45.83;30.13;;;;;;;9.65;76.56;101527.91;5051342;28;20036;-59
2021/11/01 12:26:44;;;;;;;39.70;28.50;;;;;;;9.62;76.57;101529.88;5051530;28;20036;-61
2021/11/01 12:29:14;;;;;;;41.80;28.10;;;;;;;9.74;76.36;101554.50;5051615;28;20127;-57
2021/11/01 12:31:41;;;;;;;39.37;28.13;;;;;;;9.60;76.73;101536.31;5053713;28;20044;-60
2021/11/01 12:34:26;;;;;;;47.23;29.23;;;;;;;9.61;77.03;101554.78;5056081;28;20476;-60
2021/11/01 12:37:14;;;;;;;80.20;41.33;;;;;;;9.52;77.51;101544.94;5037515;28;20079;-57
2021/11/01 12:39:50;;;;;;;44.90;31.17;;;;;;;9.46;77.15;101534.88;5055064;28;20462;-58
2021/11/01 12:59:05;;;;;;;37.47;27.27;;;;;;;9.48;78.01;101540.88;5055430;28;20040;-57
2021/11/01 13:01:30;;;;;;;38.33;27.47;;;;;;;9.42;77.35;101538.78;5055490;28;20131;-58
2021/11/01 13:07:02;;;;;;;33.47;24.50;;;;;;;9.43;77.37;101537.78;5055038;28;20438;-56
2021/11/01 13:09:26;;;;;;;40.67;26.80;;;;;;;9.40;76.88;101529.25;5039706;28;20141;-61
2021/11/01 13:19:56;;;;;;;38.50;27.47;;;;;;;9.38;77.30;101534.72;5055433;28;20041;-58
2021/11/01 13:22:27;;;;;;;38.60;27.33;;;;;;;9.35;77.45;101528.81;5054621;28;20035;-57
2021/11/01 13:28:21;;;;;;;51.75;36.20;;;;;;;9.24;77.69;101535.06;5054235;28;20032;-54
2021/11/01 13:38:44;;;;;;;45.63;29.43;;;;;;;9.06;78.13;101520.75;5053613;28;20111;-58
2021/11/01 13:41:17;;;;;;;36.30;25.53;;;;;;;9.03;78.27;101515.72;5054222;28;20033;-59
2021/11/01 13:43:46;;;;;;;33.00;25.20;;;;;;;9.03;78.30;101523.69;5054119;28;20076;-56
2021/11/01 13:46:13;;;;;;;36.38;23.50;;;;;;;9.04;78.20;101530.69;5054108;28;20025;-60
2021/11/01 13:48:39;;;;;;;37.03;26.20;;;;;;;9.00;78.41;101516.81;5037205;28;20073;-59
2021/11/01 13:51:09;;;;;;;40.20;25.37;;;;;;;9.08;78.21;101524.13;5054668;28;20068;-59
2021/11/01 13:53:43;;;;;;;48.03;27.43;;;;;;;9.06;78.58;101526.06;5054595;28;20033;-61
2021/11/01 13:56:30;;;;;;;40.40;26.63;;;;;;;9.06;77.87;101512.78;5054882;28;20041;-58
2021/11/01 13:59:00;;;;;;;61.40;34.87;;;;;;;9.11;77.86;101515.88;5054269;28;20097;-59
2021/11/01 14:01:43;;;;;;;76.03;41.97;;;;;;;9.12;77.49;101514.91;5054397;28;20036;-57
2021/11/01 14:31:08;;;;;;;34.80;25.33;;;;;;;8.91;77.80;101488.38;5053490;28;20037;-56
2021/11/01 15:40:08;;;;;;;;;;;;;;;8.28;81.47;101536.22;5034543;28;20049;-58
2021/11/01 16:18:12;;;;;;;42.53;29.80;;;;;;;7.66;82.83;101534.31;5056219;28;20037;-58
2021/11/01 16:20:39;;;;;;;41.50;31.07;;;;;;;7.67;82.62;101533.34;5037785;28;20109;-52
2021/11/01 16:23:31;;;;;;;61.20;37.77;;;;;;;7.61;82.65;101533.84;5055960;28;20131;-62
2021/11/01 16:25:59;;;;;;;54.63;33.90;;;;;;;7.61;82.72;101541.81;5055358;28;20041;-56
2021/11/01 16:28:30;;;;;;;52.27;35.47;;;;;;;7.54;82.26;101535.31;5057136;28;20033;-59
2021/11/01 16:33:45;;;;;;;45.93;28.20;;;;;;;7.53;82.76;101538.94;5056185;28;20041;-58
2021/11/01 16:36:25;;;;;;;45.47;30.30;;;;;;;7.44;82.57;101526.41;5055439;28;20036;-58
2021/11/01 16:38:56;;;;;;;38.17;29.83;;;;;;;7.45;83.11;101539.53;5033796;28;20397;-59
2021/11/01 16:41:24;;;;;;;46.20;30.37;;;;;;;7.37;82.94;101530.53;5035091;28;20120;-60
2021/11/01 16:43:50;;;;;;;44.33;31.25;;;;;;;7.33;83.10;101529.94;5035667;28;20044;-57
2021/11/01 16:46:16;;;;;;;48.07;31.37;;;;;;;7.37;83.00;101539.31;5035300;28;20041;-58
2021/11/01 16:48:46;;;;;;;52.27;32.97;;;;;;;7.32;82.66;101545.97;5035558;28;20090;-60
2021/11/01 16:51:12;;;;;;;46.80;30.80;;;;;;;7.26;82.90;101531.41;5034927;28;20065;-57
2021/11/01 16:53:48;;;;;;;54.57;34.53;;;;;;;7.31;82.83;101547.75;5035036;28;20450;-58
2021/11/01 16:56:41;;;;;;;43.20;31.20;;;;;;;7.26;82.67;101533.22;5035363;28;20048;-58
2021/11/01 16:59:16;;;;;;;45.23;30.90;;;;;;;7.17;83.00;101537.41;5034644;28;20044;-58
2021/11/01 17:01:51;;;;;;;45.37;31.80;;;;;;;7.19;82.96;101545.22;5035328;28;20044;-60
2021/11/01 17:04:19;;;;;;;45.70;32.00;;;;;;;7.21;83.04;101549.44;5034235;28;20087;-60
2021/11/01 17:06:59;;;;;;;47.08;32.45;;;;;;;7.19;82.66;101550.53;5034582;28;20041;-56
2021/11/01 17:26:10;;;;;;;41.43;30.37;;;;;;;6.97;82.88;101546.94;5034453;28;20037;-57
2021/11/01 17:28:50;;;;;;;48.13;31.10;;;;;;;6.93;83.13;101544.63;5034690;28;20061;-61
2021/11/01 17:37:30;;;;;;;46.63;32.08;;;;;;;6.80;83.71;101532.34;5034502;28;20029;-60
2021/11/01 18:41:43;;;;;;;39.53;27.10;;;;;;;6.00;83.20;101559.69;5053305;28;20416;-60
2021/11/01 18:44:18;;;;;;;37.88;26.90;;;;;;;5.96;82.82;101545.00;5049666;28;20053;-57
2021/11/01 18:52:13;;;;;;;40.20;26.77;;;;;;;5.99;82.83;101563.28;5055303;28;20044;-61
2021/11/01 18:54:49;;;;;;;36.25;27.23;;;;;;;5.96;82.59;101558.22;5053872;28;20393;-58
2021/11/01 18:57:17;;;;;;;36.73;26.77;;;;;;;5.96;82.50;101559.06;5052950;28;20044;-61
2021/11/01 18:59:46;;;;;;;44.05;26.48;;;;;;;6.07;82.48;101560.91;5052899;28;20068;-62
2021/11/01 19:02:43;;;;;;;;;;;;;;;6.13;81.91;101565.78;5054210;28;20044;-60
2021/11/01 19:05:20;;;;;;;38.83;26.98;;;;;;;6.02;81.63;101560.41;5052483;28;20299;-63
2021/11/01 21:24:46;;;;;;;35.60;24.23;;;;;;;5.31;83.67;101579.69;5041200;28;20565;-60
2021/11/01 21:27:12;;;;;;;38.53;24.73;;;;;;;5.15;83.73;101572.81;5034458;28;20400;-60
2021/11/01 21:29:37;;;;;;;35.50;23.57;;;;;;;5.13;83.99;101574.72;5021392;28;20037;-59
2021/11/01 21:32:04;;;;;;;43.37;24.43;;;;;;;5.08;84.53;101576.00;5040479;28;20079;-59
2021/11/01 21:36:59;;;;;;;39.55;23.45;;;;;;;5.06;85.03;101584.03;5043283;28;20056;-60
2021/11/01 21:39:27;;;;;;;39.87;23.40;;;;;;;5.00;84.29;101573.91;5044727;28;20075;-60
2021/11/01 21:41:55;;;;;;;35.03;24.93;;;;;;;4.98;84.51;101560.81;5043668;28;20132;-60
2021/11/01 21:44:22;;;;;;;37.90;23.73;;;;;;;5.06;84.50;101584.03;5045493;28;20024;-60
2021/11/01 21:46:48;;;;;;;40.27;24.70;;;;;;;4.87;84.43;101554.56;5045645;28;20036;-60
2021/11/01 21:49:14;;;;;;;37.33;24.30;;;;;;;4.97;84.93;101574.13;5041638;28;20040;-58
2021/11/01 21:51:41;;;;;;;37.17;25.17;;;;;;;4.91;84.85;101569.25;5045425;28;20037;-59
2021/11/01 21:56:49;;;;;;;35.77;23.83;;;;;;;4.78;85.17;101550.78;5042560;28;20495;-61
2021/11/01 22:18:07;;;;;;;39.10;24.50;;;;;;;4.66;85.08;101554.28;5039828;28;20040;-59
2021/11/01 22:20:35;;;;;;;35.10;23.17;;;;;;;4.61;85.88;101557.22;5036709;28;20138;-59
2021/11/01 22:23:14;;;;;;;;;;;;;;;4.66;85.89;101560.41;5042827;28;20063;-61
2021/11/01 22:25:46;;;;;;;34.95;23.45;;;;;;;4.56;85.53;101547.94;5027402;28;19925;-63
2021/11/01 22:33:55;;;;;;;38.33;25.23;;;;;;;4.51;86.32;101545.59;5042691;28;20034;-60
2021/11/01 22:39:10;;;;;;;35.73;23.20;;;;;;;4.49;85.75;101536.97;5046967;28;20344;-61
2021/11/01 22:41:46;;;;;;;40.57;25.13;;;;;;;4.55;86.31;101551.50;5048109;28;20056;-60
2021/11/01 22:47:39;;;;;;;34.43;21.80;;;;;;;4.52;85.79;101546.44;5035336;28;20038;-58
2021/11/01 22:57:46;;;;;;;33.40;23.87;;;;;;;4.50;85.75;101543.91;5015241;28;20194;-59
2021/11/01 23:00:20;;;;;;;36.13;24.70;;;;;;;4.49;85.90;101557.22;5015469;28;20152;-59
2021/11/01 23:02:51;;;;;;;34.70;23.77;;;;;;;4.53;86.46;101553.41;5034053;28;20037;-60
2021/11/01 23:32:56;;;;;;;33.80;21.13;;;;;;;4.42;84.54;101548.03;5032475;28;20260;-59
2021/11/01 23:35:22;;;;;;;28.70;20.03;;;;;;;4.16;84.58;101507.59;5032271;28;20053;-58
2021/11/01 23:37:48;;;;;;;29.70;19.70;;;;;;;4.40;84.43;101547.28;5031953;28;20037;-59
2021/11/01 23:40:15;;;;;;;31.10;21.07;;;;;;;4.35;84.59;101544.97;5033112;28;20568;-58
2021/11/01 23:42:41;;;;;;;32.53;20.63;;;;;;;4.27;84.29;101536.72;5032115;28;20646;-60
2021/11/01 23:45:06;;;;;;;34.43;20.77;;;;;;;4.19;84.51;101531.13;5033134;28;20276;-61
2021/11/01 23:47:32;;;;;;;29.20;21.13;;;;;;;4.31;84.14;101539.03;5032786;28;20034;-59
2021/11/01 23:49:57;;;;;;;30.37;20.43;;;;;;;4.40;84.07;101557.84;5032248;28;20057;-59
2021/11/01 23:52:24;;;;;;;30.27;19.80;;;;;;;4.31;83.99;101543.47;5031893;28;20048;-58
2021/11/01 23:54:49;;;;;;;27.47;19.97;;;;;;;4.23;83.78;101529.97;5031709;28;20068;-56
2021/11/01 23:57:19;;;;;;;29.40;21.07;;;;;;;4.11;83.87;101512.34;5032000;28;20675;-59
2021/11/01 23:59:46;;;;;;;30.37;20.20;;;;;;;4.30;83.90;101552.31;5032567;28;20124;-61
